sensor_id;sensor_type;location;lat;lon;timestamp;pressure;altitude;pressure_sealevel;temperature;humidity
85343;BME280;75760;31.390;34.904;2024-01-16T00:00:07;95655.59;;;10.38;64.23
85343;BME280;75760;31.390;34.904;2024-01-16T00:02:34;95654.31;;;10.43;63.76
85343;BME280;75760;31.390;34.904;2024-01-16T00:04:59;95651.66;;;10.43;63.81
85343;BME280;75760;31.390;34.904;2024-01-16T00:07:25;95663.09;;;10.43;63.86
85343;BME280;75760;31.390;34.904;2024-01-16T00:09:51;95652.25;;;10.34;63.94
85343;BME280;75760;31.390;34.904;2024-01-16T00:12:19;95654.94;;;10.34;64.17
85343;BME280;75760;31.390;34.904;2024-01-16T00:14:44;95652.88;;;10.25;64.35
85343;BME280;75760;31.390;34.904;2024-01-16T00:17:10;95648.47;;;10.19;64.66
85343;BME280;75760;31.390;34.904;2024-01-16T00:19:36;95646.78;;;10.09;64.83
85343;BME280;75760;31.390;34.904;2024-01-16T00:22:02;95649.25;;;10.16;64.73
85343;BME280;75760;31.390;34.904;2024-01-16T00:24:30;95652.34;;;10.14;64.52
85343;BME280;75760;31.390;34.904;2024-01-16T00:26:56;95649.44;;;10.09;64.57
85343;BME280;75760;31.390;34.904;2024-01-16T00:29:22;95652.88;;;10.09;64.52
85343;BME280;75760;31.390;34.904;2024-01-16T00:31:47;95651.66;;;10.10;64.14
85343;BME280;75760;31.390;34.904;2024-01-16T00:34:13;95647.53;;;9.93;64.24
85343;BME280;75760;31.390;34.904;2024-01-16T00:36:38;95644.38;;;9.98;64.37
85343;BME280;75760;31.390;34.904;2024-01-16T00:39:04;95647.34;;;10.00;63.89
85343;BME280;75760;31.390;34.904;2024-01-16T00:41:30;95648.03;;;10.04;63.38
85343;BME280;75760;31.390;34.904;2024-01-16T00:43:55;95638.19;;;10.01;62.60
85343;BME280;75760;31.390;34.904;2024-01-16T00:46:21;95641.53;;;10.05;62.84
85343;BME280;75760;31.390;34.904;2024-01-16T00:48:47;95645.19;;;10.11;63.04
85343;BME280;75760;31.390;34.904;2024-01-16T00:51:13;95641.38;;;9.96;63.20
85343;BME280;75760;31.390;34.904;2024-01-16T00:53:42;95642.88;;;9.97;62.89
85343;BME280;75760;31.390;34.904;2024-01-16T00:56:09;95648.84;;;10.01;62.72
85343;BME280;75760;31.390;34.904;2024-01-16T00:58:35;95655.09;;;10.11;62.55
85343;BME280;75760;31.390;34.904;2024-01-16T01:01:00;95654.03;;;10.08;61.81
85343;BME280;75760;31.390;34.904;2024-01-16T01:03:26;95658.44;;;9.98;62.33
85343;BME280;75760;31.390;34.904;2024-01-16T01:05:51;95651.78;;;10.07;62.22
85343;BME280;75760;31.390;34.904;2024-01-16T01:08:17;95651.94;;;10.16;61.78
85343;BME280;75760;31.390;34.904;2024-01-16T01:10:43;95654.09;;;10.21;61.45
85343;BME280;75760;31.390;34.904;2024-01-16T01:13:08;95644.53;;;10.23;61.60
85343;BME280;75760;31.390;34.904;2024-01-16T01:15:34;95646.38;;;10.26;61.63
85343;BME280;75760;31.390;34.904;2024-01-16T01:18:00;95652.75;;;10.29;61.55
85343;BME280;75760;31.390;34.904;2024-01-16T01:20:25;95645.94;;;10.28;61.17
85343;BME280;75760;31.390;34.904;2024-01-16T01:22:51;95639.84;;;10.11;61.23
85343;BME280;75760;31.390;34.904;2024-01-16T01:25:17;95636.69;;;10.16;61.58
85343;BME280;75760;31.390;34.904;2024-01-16T01:27:42;95644.59;;;10.20;61.71
85343;BME280;75760;31.390;34.904;2024-01-16T01:30:09;95647.19;;;10.23;61.52
85343;BME280;75760;31.390;34.904;2024-01-16T01:32:38;95648.03;;;10.20;61.11
85343;BME280;75760;31.390;34.904;2024-01-16T01:35:05;95651.84;;;10.03;61.54
85343;BME280;75760;31.390;34.904;2024-01-16T01:37:31;95653.78;;;9.86;62.49
85343;BME280;75760;31.390;34.904;2024-01-16T01:39:56;95652.84;;;9.93;63.08
85343;BME280;75760;31.390;34.904;2024-01-16T01:42:22;95653.34;;;10.04;62.71
85343;BME280;75760;31.390;34.904;2024-01-16T01:44:48;95646.25;;;10.14;62.39
85343;BME280;75760;31.390;34.904;2024-01-16T01:47:13;95640.47;;;10.19;62.40
85343;BME280;75760;31.390;34.904;2024-01-16T01:49:40;95638.53;;;10.19;62.59
85343;BME280;75760;31.390;34.904;2024-01-16T01:52:06;95640.69;;;10.24;61.89
85343;BME280;75760;31.390;34.904;2024-01-16T01:54:35;95632.69;;;10.24;61.72
85343;BME280;75760;31.390;34.904;2024-01-16T01:57:02;95626.09;;;10.13;61.90
85343;BME280;75760;31.390;34.904;2024-01-16T01:59:29;95632.84;;;10.17;62.31
85343;BME280;75760;31.390;34.904;2024-01-16T02:01:56;95645.59;;;10.10;62.59
85343;BME280;75760;31.390;34.904;2024-01-16T02:04:22;95644.44;;;9.94;63.10
85343;BME280;75760;31.390;34.904;2024-01-16T02:06:50;95640.78;;;10.04;62.98
85343;BME280;75760;31.390;34.904;2024-01-16T02:09:15;95639.84;;;10.11;62.72
85343;BME280;75760;31.390;34.904;2024-01-16T02:11:41;95637.84;;;10.15;62.80
85343;BME280;75760;31.390;34.904;2024-01-16T02:14:07;95642.00;;;10.00;63.09
85343;BME280;75760;31.390;34.904;2024-01-16T02:16:40;95640.78;;;9.88;63.77
85343;BME280;75760;31.390;34.904;2024-01-16T02:19:07;95642.75;;;10.00;63.37
85343;BME280;75760;31.390;34.904;2024-01-16T02:21:49;95640.03;;;10.04;63.61
85343;BME280;75760;31.390;34.904;2024-01-16T02:24:17;95646.34;;;10.10;63.68
85343;BME280;75760;31.390;34.904;2024-01-16T02:26:44;95650.19;;;10.09;63.18
85343;BME280;75760;31.390;34.904;2024-01-16T02:29:09;95653.50;;;10.13;63.57
85343;BME280;75760;31.390;34.904;2024-01-16T02:31:35;95660.41;;;10.11;63.19
85343;BME280;75760;31.390;34.904;2024-01-16T02:34:01;95657.75;;;10.11;63.10
85343;BME280;75760;31.390;34.904;2024-01-16T02:36:27;95663.34;;;10.16;63.04
85343;BME280;75760;31.390;34.904;2024-01-16T02:38:53;95654.19;;;10.17;63.00
85343;BME280;75760;31.390;34.904;2024-01-16T02:41:19;95650.69;;;10.20;62.90
85343;BME280;75760;31.390;34.904;2024-01-16T02:43:45;95652.19;;;10.21;62.74
85343;BME280;75760;31.390;34.904;2024-01-16T02:46:10;95656.78;;;10.21;62.93
85343;BME280;75760;31.390;34.904;2024-01-16T02:48:36;95653.03;;;10.18;62.85
85343;BME280;75760;31.390;34.904;2024-01-16T02:51:02;95646.25;;;10.14;62.78
85343;BME280;75760;31.390;34.904;2024-01-16T02:53:31;95647.84;;;10.11;63.17
85343;BME280;75760;31.390;34.904;2024-01-16T02:55:57;95644.94;;;10.05;63.07
85343;BME280;75760;31.390;34.904;2024-01-16T02:58:29;95647.34;;;10.16;62.94
85343;BME280;75760;31.390;34.904;2024-01-16T03:00:56;95638.34;;;10.10;62.90
85343;BME280;75760;31.390;34.904;2024-01-16T03:03:22;95643.84;;;10.19;62.64
85343;BME280;75760;31.390;34.904;2024-01-16T03:05:48;95639.19;;;10.23;62.37
85343;BME280;75760;31.390;34.904;2024-01-16T03:08:14;95646.09;;;10.21;62.39
85343;BME280;75760;31.390;34.904;2024-01-16T03:10:40;95651.59;;;10.14;62.36
85343;BME280;75760;31.390;34.904;2024-01-16T03:13:06;95647.19;;;10.23;62.20
85343;BME280;75760;31.390;34.904;2024-01-16T03:15:32;95646.03;;;10.24;61.76
85343;BME280;75760;31.390;34.904;2024-01-16T03:17:58;95646.38;;;10.26;61.69
85343;BME280;75760;31.390;34.904;2024-01-16T03:20:25;95646.69;;;10.28;61.40
85343;BME280;75760;31.390;34.904;2024-01-16T03:22:51;95638.69;;;10.28;61.30
85343;BME280;75760;31.390;34.904;2024-01-16T03:25:16;95644.25;;;10.34;60.92
85343;BME280;75760;31.390;34.904;2024-01-16T03:27:43;95650.75;;;10.33;60.73
85343;BME280;75760;31.390;34.904;2024-01-16T03:30:09;95650.38;;;10.18;61.75
85343;BME280;75760;31.390;34.904;2024-01-16T03:32:36;95646.72;;;9.80;63.61
85343;BME280;75760;31.390;34.904;2024-01-16T03:35:02;95646.09;;;9.56;64.85
85343;BME280;75760;31.390;34.904;2024-01-16T03:37:27;95647.91;;;9.43;65.21
85343;BME280;75760;31.390;34.904;2024-01-16T03:39:53;95636.59;;;9.39;65.15
85343;BME280;75760;31.390;34.904;2024-01-16T03:42:20;95638.91;;;9.37;65.55
85343;BME280;75760;31.390;34.904;2024-01-16T03:44:46;95654.03;;;9.23;66.11
85343;BME280;75760;31.390;34.904;2024-01-16T03:47:12;95655.28;;;9.19;65.79
85343;BME280;75760;31.390;34.904;2024-01-16T03:49:38;95646.38;;;9.25;65.23
85343;BME280;75760;31.390;34.904;2024-01-16T03:52:04;95645.84;;;9.66;62.70
85343;BME280;75760;31.390;34.904;2024-01-16T03:54:29;95651.13;;;9.86;62.76
85343;BME280;75760;31.390;34.904;2024-01-16T03:56:55;95647.44;;;9.96;62.01
85343;BME280;75760;31.390;34.904;2024-01-16T03:59:21;95651.09;;;10.02;61.56
85343;BME280;75760;31.390;34.904;2024-01-16T04:01:47;95661.69;;;10.06;61.94
85343;BME280;75760;31.390;34.904;2024-01-16T04:04:14;95666.69;;;10.04;61.52
85343;BME280;75760;31.390;34.904;2024-01-16T04:06:40;95670.34;;;9.94;61.81
85343;BME280;75760;31.390;34.904;2024-01-16T04:09:06;95666.34;;;9.86;62.33
85343;BME280;75760;31.390;34.904;2024-01-16T04:11:33;95671.75;;;9.82;62.54
85343;BME280;75760;31.390;34.904;2024-01-16T04:14:00;95679.00;;;9.65;63.37
85343;BME280;75760;31.390;34.904;2024-01-16T04:16:25;95688.19;;;9.45;64.28
85343;BME280;75760;31.390;34.904;2024-01-16T04:18:51;95694.09;;;9.36;65.02
85343;BME280;75760;31.390;34.904;2024-01-16T04:21:17;95704.88;;;9.29;65.34
85343;BME280;75760;31.390;34.904;2024-01-16T04:23:42;95703.44;;;9.24;65.44
85343;BME280;75760;31.390;34.904;2024-01-16T04:26:08;95710.47;;;9.15;65.50
85343;BME280;75760;31.390;34.904;2024-01-16T04:28:34;95705.31;;;9.08;65.89
85343;BME280;75760;31.390;34.904;2024-01-16T04:31:06;95705.47;;;9.01;66.48
85343;BME280;75760;31.390;34.904;2024-01-16T04:33:32;95698.22;;;9.01;66.13
85343;BME280;75760;31.390;34.904;2024-01-16T04:35:57;95692.97;;;8.98;66.29
85343;BME280;75760;31.390;34.904;2024-01-16T04:38:23;95692.34;;;8.90;66.99
85343;BME280;75760;31.390;34.904;2024-01-16T04:40:49;95689.00;;;8.86;66.93
85343;BME280;75760;31.390;34.904;2024-01-16T04:43:14;95689.28;;;8.91;66.86
85343;BME280;75760;31.390;34.904;2024-01-16T04:45:40;95690.34;;;8.94;66.92
85343;BME280;75760;31.390;34.904;2024-01-16T04:48:06;95695.63;;;8.98;66.19
85343;BME280;75760;31.390;34.904;2024-01-16T04:50:32;95706.25;;;8.98;66.93
85343;BME280;75760;31.390;34.904;2024-01-16T04:52:58;95715.34;;;9.00;66.32
85343;BME280;75760;31.390;34.904;2024-01-16T04:55:27;95721.28;;;9.08;66.22
85343;BME280;75760;31.390;34.904;2024-01-16T04:57:54;95727.69;;;9.10;66.48
85343;BME280;75760;31.390;34.904;2024-01-16T05:00:19;95726.34;;;9.22;66.12
85343;BME280;75760;31.390;34.904;2024-01-16T05:02:45;95729.19;;;9.31;65.57
85343;BME280;75760;31.390;34.904;2024-01-16T05:05:12;95736.81;;;9.49;65.06
85343;BME280;75760;31.390;34.904;2024-01-16T05:07:38;95730.44;;;9.62;64.39
85343;BME280;75760;31.390;34.904;2024-01-16T05:10:04;95731.06;;;9.70;64.45
85343;BME280;75760;31.390;34.904;2024-01-16T05:12:29;95733.31;;;9.88;63.82
85343;BME280;75760;31.390;34.904;2024-01-16T05:14:55;95736.22;;;9.93;63.73
85343;BME280;75760;31.390;34.904;2024-01-16T05:17:20;95744.41;;;10.02;63.74
85343;BME280;75760;31.390;34.904;2024-01-16T05:19:46;95743.75;;;10.15;63.95
85343;BME280;75760;31.390;34.904;2024-01-16T05:22:11;95741.84;;;10.31;63.29
85343;BME280;75760;31.390;34.904;2024-01-16T05:24:37;95742.69;;;10.45;62.53
85343;BME280;75760;31.390;34.904;2024-01-16T05:27:03;95745.75;;;10.59;62.48
85343;BME280;75760;31.390;34.904;2024-01-16T05:29:30;95744.25;;;10.74;62.14
85343;BME280;75760;31.390;34.904;2024-01-16T05:31:56;95751.25;;;10.97;61.15
85343;BME280;75760;31.390;34.904;2024-01-16T05:34:22;95754.16;;;11.32;60.04
85343;BME280;75760;31.390;34.904;2024-01-16T05:36:48;95754.75;;;11.52;59.87
85343;BME280;75760;31.390;34.904;2024-01-16T05:39:14;95752.19;;;11.74;59.48
85343;BME280;75760;31.390;34.904;2024-01-16T05:41:40;95753.09;;;11.96;58.75
85343;BME280;75760;31.390;34.904;2024-01-16T05:44:06;95753.19;;;12.31;57.94
85343;BME280;75760;31.390;34.904;2024-01-16T05:46:32;95752.09;;;12.53;57.52
85343;BME280;75760;31.390;34.904;2024-01-16T05:48:57;95751.66;;;12.89;56.10
85343;BME280;75760;31.390;34.904;2024-01-16T05:51:25;95752.63;;;13.17;55.10
85343;BME280;75760;31.390;34.904;2024-01-16T05:53:50;95753.28;;;13.43;55.00
85343;BME280;75760;31.390;34.904;2024-01-16T05:56:16;95759.50;;;13.62;54.35
85343;BME280;75760;31.390;34.904;2024-01-16T05:58:42;95752.59;;;13.83;53.88
85343;BME280;75760;31.390;34.904;2024-01-16T06:01:07;95759.22;;;14.00;53.35
85343;BME280;75760;31.390;34.904;2024-01-16T06:03:33;95757.22;;;14.22;52.52
85343;BME280;75760;31.390;34.904;2024-01-16T06:05:58;95763.88;;;14.39;51.84
85343;BME280;75760;31.390;34.904;2024-01-16T06:08:24;95767.31;;;14.49;51.32
85343;BME280;75760;31.390;34.904;2024-01-16T06:10:50;95758.84;;;14.69;51.20
85343;BME280;75760;31.390;34.904;2024-01-16T06:13:18;95763.81;;;14.89;50.22
85343;BME280;75760;31.390;34.904;2024-01-16T06:15:43;95756.00;;;14.91;49.14
85343;BME280;75760;31.390;34.904;2024-01-16T06:18:09;95772.75;;;15.13;49.29
85343;BME280;75760;31.390;34.904;2024-01-16T06:20:35;95773.78;;;15.34;49.35
85343;BME280;75760;31.390;34.904;2024-01-16T06:23:01;95770.50;;;15.39;47.95
85343;BME280;75760;31.390;34.904;2024-01-16T06:25:26;95778.28;;;15.37;47.48
85343;BME280;75760;31.390;34.904;2024-01-16T06:27:52;95780.97;;;15.46;47.74
85343;BME280;75760;31.390;34.904;2024-01-16T06:30:17;95778.84;;;15.50;47.03
85343;BME280;75760;31.390;34.904;2024-01-16T06:32:43;95782.31;;;15.32;46.50
85343;BME280;75760;31.390;34.904;2024-01-16T06:35:08;95786.78;;;15.53;46.54
85343;BME280;75760;31.390;34.904;2024-01-16T06:37:34;95789.91;;;15.70;45.60
85343;BME280;75760;31.390;34.904;2024-01-16T06:40:00;95792.16;;;15.63;45.94
85343;BME280;75760;31.390;34.904;2024-01-16T06:42:25;95792.16;;;15.72;45.80
85343;BME280;75760;31.390;34.904;2024-01-16T06:44:51;95780.25;;;15.96;45.55
85343;BME280;75760;31.390;34.904;2024-01-16T06:47:16;95786.22;;;16.10;45.15
85343;BME280;75760;31.390;34.904;2024-01-16T06:49:42;95786.50;;;16.12;44.71
85343;BME280;75760;31.390;34.904;2024-01-16T06:52:08;95792.38;;;16.34;44.66
85343;BME280;75760;31.390;34.904;2024-01-16T06:54:34;95795.53;;;16.32;44.36
85343;BME280;75760;31.390;34.904;2024-01-16T06:57:00;95790.81;;;16.51;43.75
85343;BME280;75760;31.390;34.904;2024-01-16T06:59:26;95794.75;;;16.74;42.99
85343;BME280;75760;31.390;34.904;2024-01-16T07:01:51;95797.56;;;16.47;43.07
85343;BME280;75760;31.390;34.904;2024-01-16T07:04:17;95808.72;;;16.63;43.48
85343;BME280;75760;31.390;34.904;2024-01-16T07:06:43;95813.28;;;16.81;43.30
85343;BME280;75760;31.390;34.904;2024-01-16T07:09:09;95812.41;;;16.75;43.03
85343;BME280;75760;31.390;34.904;2024-01-16T07:11:38;95811.53;;;16.93;42.74
85343;BME280;75760;31.390;34.904;2024-01-16T07:14:08;95823.78;;;16.79;43.86
85343;BME280;75760;31.390;34.904;2024-01-16T07:16:34;95815.63;;;16.88;43.76
85343;BME280;75760;31.390;34.904;2024-01-16T07:19:00;95809.50;;;16.88;43.84
85343;BME280;75760;31.390;34.904;2024-01-16T07:21:25;95819.75;;;16.98;43.35
85343;BME280;75760;31.390;34.904;2024-01-16T07:23:51;95808.97;;;16.98;42.89
85343;BME280;75760;31.390;34.904;2024-01-16T07:26:16;95815.97;;;16.81;43.11
85343;BME280;75760;31.390;34.904;2024-01-16T07:28:42;95826.41;;;16.88;43.12
85343;BME280;75760;31.390;34.904;2024-01-16T07:31:07;95819.44;;;16.73;42.17
85343;BME280;75760;31.390;34.904;2024-01-16T07:33:35;95811.72;;;16.89;42.71
85343;BME280;75760;31.390;34.904;2024-01-16T07:36:00;95824.91;;;16.87;42.31
85343;BME280;75760;31.390;34.904;2024-01-16T07:38:26;95821.75;;;16.56;42.44
85343;BME280;75760;31.390;34.904;2024-01-16T07:40:52;95809.50;;;16.55;43.08
85343;BME280;75760;31.390;34.904;2024-01-16T07:43:17;95809.03;;;16.65;42.94
85343;BME280;75760;31.390;34.904;2024-01-16T07:45:43;95805.81;;;16.76;42.59
85343;BME280;75760;31.390;34.904;2024-01-16T07:48:09;95796.53;;;16.77;42.60
85343;BME280;75760;31.390;34.904;2024-01-16T07:50:34;95793.31;;;16.55;43.12
85343;BME280;75760;31.390;34.904;2024-01-16T07:53:00;95793.63;;;16.57;43.31
85343;BME280;75760;31.390;34.904;2024-01-16T07:55:25;95787.69;;;16.77;43.18
85343;BME280;75760;31.390;34.904;2024-01-16T07:57:53;95795.66;;;16.95;42.70
85343;BME280;75760;31.390;34.904;2024-01-16T08:00:19;95789.28;;;16.83;43.73
85343;BME280;75760;31.390;34.904;2024-01-16T08:02:45;95785.50;;;16.66;42.90
85343;BME280;75760;31.390;34.904;2024-01-16T08:05:10;95784.63;;;16.60;43.45
85343;BME280;75760;31.390;34.904;2024-01-16T08:07:36;95781.28;;;16.74;42.86
85343;BME280;75760;31.390;34.904;2024-01-16T08:10:02;95779.50;;;16.71;43.19
85343;BME280;75760;31.390;34.904;2024-01-16T08:12:28;95773.44;;;16.19;43.56
85343;BME280;75760;31.390;34.904;2024-01-16T08:14:53;95769.41;;;16.15;43.89
85343;BME280;75760;31.390;34.904;2024-01-16T08:17:19;95780.84;;;16.43;44.11
85343;BME280;75760;31.390;34.904;2024-01-16T08:19:44;95773.19;;;16.74;44.23
85343;BME280;75760;31.390;34.904;2024-01-16T08:22:10;95772.22;;;16.53;43.49
85343;BME280;75760;31.390;34.904;2024-01-16T08:24:36;95755.19;;;16.23;44.13
85343;BME280;75760;31.390;34.904;2024-01-16T08:27:02;95758.75;;;16.62;43.77
85343;BME280;75760;31.390;34.904;2024-01-16T08:29:28;95754.31;;;16.74;43.77
85343;BME280;75760;31.390;34.904;2024-01-16T08:31:53;95749.03;;;16.56;43.53
85343;BME280;75760;31.390;34.904;2024-01-16T08:34:19;95746.09;;;16.45;43.45
85343;BME280;75760;31.390;34.904;2024-01-16T08:36:46;95734.88;;;15.80;44.96
85343;BME280;75760;31.390;34.904;2024-01-16T08:39:11;95736.81;;;16.22;44.16
85343;BME280;75760;31.390;34.904;2024-01-16T08:41:37;95728.78;;;16.37;44.20
85343;BME280;75760;31.390;34.904;2024-01-16T08:44:03;95728.28;;;16.47;44.02
85343;BME280;75760;31.390;34.904;2024-01-16T08:46:29;95728.09;;;16.27;44.06
85343;BME280;75760;31.390;34.904;2024-01-16T08:48:55;95722.13;;;15.90;44.66
85343;BME280;75760;31.390;34.904;2024-01-16T08:51:20;95719.91;;;16.21;44.46
85343;BME280;75760;31.390;34.904;2024-01-16T08:53:46;95714.06;;;16.23;44.49
85343;BME280;75760;31.390;34.904;2024-01-16T08:56:11;95714.84;;;16.14;44.22
85343;BME280;75760;31.390;34.904;2024-01-16T08:58:38;95715.81;;;16.02;44.48
85343;BME280;75760;31.390;34.904;2024-01-16T09:01:04;95706.44;;;16.21;44.34
85343;BME280;75760;31.390;34.904;2024-01-16T09:03:34;95704.09;;;16.38;44.57
85343;BME280;75760;31.390;34.904;2024-01-16T09:06:00;95704.84;;;16.06;44.53
85343;BME280;75760;31.390;34.904;2024-01-16T09:08:26;95715.56;;;16.24;44.65
85343;BME280;75760;31.390;34.904;2024-01-16T09:10:53;95702.75;;;16.57;43.40
85343;BME280;75760;31.390;34.904;2024-01-16T09:13:19;95699.06;;;16.79;43.84
85343;BME280;75760;31.390;34.904;2024-01-16T09:15:49;95696.06;;;16.53;43.97
85343;BME280;75760;31.390;34.904;2024-01-16T09:18:15;95690.09;;;16.49;43.48
85343;BME280;75760;31.390;34.904;2024-01-16T09:20:44;95683.28;;;16.39;44.82
85343;BME280;75760;31.390;34.904;2024-01-16T09:23:10;95681.91;;;16.67;44.64
85343;BME280;75760;31.390;34.904;2024-01-16T09:25:36;95673.59;;;16.94;44.70
85343;BME280;75760;31.390;34.904;2024-01-16T09:28:01;95666.00;;;17.08;44.70
85343;BME280;75760;31.390;34.904;2024-01-16T09:30:27;95664.25;;;16.66;43.41
85343;BME280;75760;31.390;34.904;2024-01-16T09:32:53;95648.59;;;16.55;44.56
85343;BME280;75760;31.390;34.904;2024-01-16T09:35:19;95654.19;;;16.52;44.33
85343;BME280;75760;31.390;34.904;2024-01-16T09:37:44;95652.84;;;16.47;45.70
85343;BME280;75760;31.390;34.904;2024-01-16T09:40:10;95646.31;;;16.63;45.47
85343;BME280;75760;31.390;34.904;2024-01-16T09:42:36;95644.50;;;16.84;45.42
85343;BME280;75760;31.390;34.904;2024-01-16T09:45:02;95644.91;;;17.06;44.91
85343;BME280;75760;31.390;34.904;2024-01-16T09:47:32;95634.28;;;16.88;44.21
85343;BME280;75760;31.390;34.904;2024-01-16T09:50:03;95636.41;;;16.69;44.92
85343;BME280;75760;31.390;34.904;2024-01-16T09:52:29;95631.97;;;16.57;45.52
85343;BME280;75760;31.390;34.904;2024-01-16T09:54:55;95632.69;;;16.66;45.46
85343;BME280;75760;31.390;34.904;2024-01-16T09:57:25;95615.94;;;16.24;45.60
85343;BME280;75760;31.390;34.904;2024-01-16T09:59:56;95621.16;;;16.66;45.80
85343;BME280;75760;31.390;34.904;2024-01-16T10:02:23;95611.28;;;16.63;45.57
85343;BME280;75760;31.390;34.904;2024-01-16T10:04:49;95608.44;;;16.66;45.98
85343;BME280;75760;31.390;34.904;2024-01-16T10:07:15;95595.88;;;16.63;46.12
85343;BME280;75760;31.390;34.904;2024-01-16T10:09:41;95603.31;;;16.30;46.92
85343;BME280;75760;31.390;34.904;2024-01-16T10:12:08;95605.09;;;16.72;46.75
85343;BME280;75760;31.390;34.904;2024-01-16T10:14:36;95601.13;;;16.82;46.75
85343;BME280;75760;31.390;34.904;2024-01-16T10:17:03;95595.16;;;16.54;46.09
85343;BME280;75760;31.390;34.904;2024-01-16T10:19:31;95596.44;;;16.67;47.63
85343;BME280;75760;31.390;34.904;2024-01-16T10:22:04;95594.34;;;16.48;48.16
85343;BME280;75760;31.390;34.904;2024-01-16T10:24:30;95592.91;;;16.61;47.86
85343;BME280;75760;31.390;34.904;2024-01-16T10:27:00;95600.63;;;16.45;48.75
85343;BME280;75760;31.390;34.904;2024-01-16T10:29:26;95595.47;;;16.56;48.25
85343;BME280;75760;31.390;34.904;2024-01-16T10:31:52;95592.84;;;16.47;48.51
85343;BME280;75760;31.390;34.904;2024-01-16T10:34:22;95589.03;;;16.15;48.55
85343;BME280;75760;31.390;34.904;2024-01-16T10:36:58;95588.75;;;15.89;48.85
85343;BME280;75760;31.390;34.904;2024-01-16T10:39:24;95582.78;;;15.94;49.18
85343;BME280;75760;31.390;34.904;2024-01-16T10:41:58;95577.50;;;15.76;49.14
85343;BME280;75760;31.390;34.904;2024-01-16T10:44:24;95571.91;;;16.27;48.47
85343;BME280;75760;31.390;34.904;2024-01-16T10:46:50;95573.44;;;16.04;48.55
85343;BME280;75760;31.390;34.904;2024-01-16T10:49:15;95564.22;;;16.34;48.24
85343;BME280;75760;31.390;34.904;2024-01-16T10:51:44;95563.50;;;16.10;48.21
85343;BME280;75760;31.390;34.904;2024-01-16T10:54:14;95553.88;;;16.18;49.07
85343;BME280;75760;31.390;34.904;2024-01-16T10:56:45;95555.13;;;16.47;47.99
85343;BME280;75760;31.390;34.904;2024-01-16T10:59:34;95538.56;;;16.24;48.43
85343;BME280;75760;31.390;34.904;2024-01-16T11:02:04;95541.59;;;16.56;48.19
85343;BME280;75760;31.390;34.904;2024-01-16T11:04:35;95533.25;;;16.68;47.83
85343;BME280;75760;31.390;34.904;2024-01-16T11:07:03;95533.63;;;16.76;47.29
85343;BME280;75760;31.390;34.904;2024-01-16T11:09:31;95533.22;;;16.54;47.40
85343;BME280;75760;31.390;34.904;2024-01-16T11:11:57;95534.66;;;16.64;47.76
85343;BME280;75760;31.390;34.904;2024-01-16T11:14:23;95533.34;;;16.74;47.11
85343;BME280;75760;31.390;34.904;2024-01-16T11:16:50;95525.56;;;16.76;47.30
85343;BME280;75760;31.390;34.904;2024-01-16T11:19:17;95522.84;;;16.76;47.08
85343;BME280;75760;31.390;34.904;2024-01-16T11:21:45;95522.28;;;16.57;46.74
85343;BME280;75760;31.390;34.904;2024-01-16T11:24:12;95517.50;;;16.38;47.79
85343;BME280;75760;31.390;34.904;2024-01-16T11:26:41;95511.38;;;16.37;48.51
85343;BME280;75760;31.390;34.904;2024-01-16T11:29:33;95501.09;;;16.65;47.75
85343;BME280;75760;31.390;34.904;2024-01-16T11:32:00;95507.03;;;16.40;48.24
85343;BME280;75760;31.390;34.904;2024-01-16T11:37:13;95500.75;;;16.04;48.75
85343;BME280;75760;31.390;34.904;2024-01-16T11:39:39;95503.69;;;15.91;48.73
85343;BME280;75760;31.390;34.904;2024-01-16T11:42:06;95509.44;;;16.23;48.58
85343;BME280;75760;31.390;34.904;2024-01-16T11:44:43;95502.59;;;16.51;48.26
85343;BME280;75760;31.390;34.904;2024-01-16T11:49:41;95498.31;;;16.59;48.01
85343;BME280;75760;31.390;34.904;2024-01-16T11:52:07;95495.47;;;16.24;48.52
85343;BME280;75760;31.390;34.904;2024-01-16T11:54:33;95499.56;;;16.34;49.15
85343;BME280;75760;31.390;34.904;2024-01-16T12:00:04;95499.19;;;16.27;49.00
85343;BME280;75760;31.390;34.904;2024-01-16T12:02:52;95499.19;;;16.12;48.96
85343;BME280;75760;31.390;34.904;2024-01-16T12:05:19;95493.59;;;16.16;49.08
85343;BME280;75760;31.390;34.904;2024-01-16T12:07:49;95499.19;;;15.74;48.95
85343;BME280;75760;31.390;34.904;2024-01-16T12:10:20;95494.81;;;15.76;50.00
85343;BME280;75760;31.390;34.904;2024-01-16T12:12:46;95500.53;;;15.93;48.93
85343;BME280;75760;31.390;34.904;2024-01-16T12:15:20;95499.00;;;16.16;49.64
85343;BME280;75760;31.390;34.904;2024-01-16T12:20:22;95506.06;;;16.13;48.82
85343;BME280;75760;31.390;34.904;2024-01-16T12:22:55;95503.91;;;15.79;49.31
85343;BME280;75760;31.390;34.904;2024-01-16T12:25:21;95494.38;;;15.54;49.09
85343;BME280;75760;31.390;34.904;2024-01-16T12:30:26;95503.19;;;15.54;51.20
85343;BME280;75760;31.390;34.904;2024-01-16T12:35:28;95501.41;;;15.75;49.96
85343;BME280;75760;31.390;34.904;2024-01-16T12:38:00;95500.75;;;15.66;49.73
85343;BME280;75760;31.390;34.904;2024-01-16T12:40:27;95488.44;;;15.88;49.91
85343;BME280;75760;31.390;34.904;2024-01-16T12:42:53;95501.53;;;16.19;49.43
85343;BME280;75760;31.390;34.904;2024-01-16T12:45:19;95504.66;;;15.79;49.12
85343;BME280;75760;31.390;34.904;2024-01-16T12:47:50;95502.34;;;15.39;49.15
85343;BME280;75760;31.390;34.904;2024-01-16T12:50:21;95509.84;;;15.35;50.38
85343;BME280;75760;31.390;34.904;2024-01-16T12:53:01;95507.84;;;15.45;50.08
85343;BME280;75760;31.390;34.904;2024-01-16T12:55:26;95512.00;;;15.55;50.15
85343;BME280;75760;31.390;34.904;2024-01-16T12:58:15;95513.03;;;15.48;49.67
85343;BME280;75760;31.390;34.904;2024-01-16T13:00:47;95506.44;;;15.58;51.41
85343;BME280;75760;31.390;34.904;2024-01-16T13:03:20;95512.97;;;15.67;50.43
85343;BME280;75760;31.390;34.904;2024-01-16T13:05:55;95522.53;;;15.35;51.17